Hovedside
METAR-TAF:

METAR-TAF

Lufthavner :

Stornoway, Skottland

breddegrad: 58-13N, lengdegrad: 006-19W, høyde over havet: 9 m

Gjeldene værobservasjon

Denne rapporten ble laget for 21 minutter siden, klokken 20:50 UTC
Flau vind
Temperatur 11°C
Luftfuktighet 87%
Trykk 995 hPa
Sikt: 3900 m
regn,

METAR: EGPO 142050Z AUTO 00000KT 3900 RA FEW026/// SCT032/// BKN042/// 11/09 Q0995

Tid: 22:11 (21:11 UTC)

Varsel

Denne rapporten ble laget for 1 time og 15 minutter siden, klokken 19:56 UTC
Varsel gyldig fra 14. klokken 21 UTC til 15. klokken 06 UTC
Vind 2 kt fra Øst
Sikt 10 km eller mer
Få skyer i en høyde av 800 ft
Spredte skyer i en høyde av 4000 ft
Sannsynlighet 30% :
Midlertidig
fra 14. klokken 21 UTC til 15. klokken 06 UTC
Sikt: 6000 m
Brutte skyer i en høyde av 1000 ft
regn, regnbyger,

TAF: EGPO 141956Z 1421/1506 08002KT 9999 FEW008 SCT040 PROB30 TEMPO 1421/1506 6000 RA SHRA BKN010

Værobservasjoner og værvarsel for over 4000 flyplasser (METAR- og TAF-rapporter).

Tilgjengelige stasjoner er representert av de røde og gule prikkene på kartet.

Hold musepekeren over prikken for å se navnet på stasjonen.

Klikk så for å se værobservasjoner og -varsler.

For å forandre kartet kan du klikke på den grønne knappen med svart kryss for å zoome inn, på den grønne knappen med strek for å zoome ut, eller på de grønne pilene for å se tilstøtende kart.


METAR-TAF: